• Join FlightAware (Why Join?)
  • Login
  • US Flag 
06:31AM EST


 

Airport Tracker/Info


-or-


 

Live Flight TrackerFlight Track Log ✈ JBU300 ✈ 19-Apr-2013 ✈ KLGB - KIAD

Flight Track Log - Related Links

Times and Time Zones

All times are in EDT time to prevent confusion due to time zone crossing. See the JBU300 flight status page for this flight to view local times or setup timezone preferences in your user account.

Time Position Orientation Groundspeed Altitude Reporting Facility
EDT Latitude Longitude Course Direction KTS MPH feet Rate Location/Type
12:57AM 33.8447 -118.1808 90° East 169 194 1,800  Level Los Angeles Center
12:58AM 33.8189 -118.2336 240° Southwest 239 275 3,700 2,220 Climbing Los Angeles Center
12:59AM 33.7486 -118.2514 192° South 250 288 6,400 2,400 Climbing Los Angeles Center
01:00AM 33.5834 -117.8710 90° East  Level FlightAware Approximate
01:00AM 33.6672 -118.2614 186° South 290 334 8,700  Level Los Angeles Center
01:01AM 33.5970 -117.7214 80° East  Level FlightAware Approximate
01:01AM 33.6244 -118.1781 122° Southeast 306 352 10,700  Level Los Angeles Center
01:02AM 33.6000 -117.5707 90° East  Level FlightAware Approximate
01:02AM 33.6264 -118.0419 89° East 342 394 13,000  Level Los Angeles Center
01:03AM 33.6272 -117.9225 89° East 355 409 15,300 1,800 Climbing Los Angeles Center
01:04AM 33.6278 -117.7986 90° East 369 425 16,700 1,440 Climbing Los Angeles Center
01:05AM 33.6286 -117.6631 90° East 403 464 18,300 1,500 Climbing Los Angeles Center
01:06AM 33.6292 -117.5228 90° East 419 482 19,800 1,500 Climbing Los Angeles Center
01:07AM 33.6300 -117.3767 90° East 435 501 21,400 1,380 Climbing Los Angeles Center
01:08AM 33.6294 -117.2275 90° East 447 514 22,700 1,260 Climbing Los Angeles Center
01:09AM 33.6303 -117.0747 90° East 457 526 24,000 1,200 Climbing Los Angeles Center
01:10AM 33.6311 -116.9175 90° East 471 542 25,200 1,260 Climbing Los Angeles Center
01:11AM 33.6300 -116.7344 90° East 479 551 26,600 1,140 Climbing Los Angeles Center
01:13AM 33.6358 -116.5706 88° East 489 563 27,600 960 Climbing Los Angeles Center
01:14AM 33.6808 -116.4167 71° East 489 563 28,600 960 Climbing Los Angeles Center
01:15AM 33.7267 -116.2608 70° East 493 567 29,600 960 Climbing Los Angeles Center
01:16AM 33.7728 -116.1028 71° East 499 574 30,600 1,080 Climbing Los Angeles Center
01:17AM 33.8183 -115.9458 71° East 498 573 31,800 1,020 Climbing Los Angeles Center
01:18AM 33.8653 -115.7911 70° East 493 567 32,700 1,020 Climbing Los Angeles Center
01:19AM 33.9097 -115.6336 71° East 495 570 33,900 840 Climbing Los Angeles Center
01:20AM 33.9544 -115.4783 71° East 492 566 34,500 540 Climbing Los Angeles Center
01:21AM 34.0078 -115.2892 71° East 495 570 35,000 180 Climbing Los Angeles Center
01:22AM 34.0522 -115.1353 71° East 489 563 34,900 -60 Descending Los Angeles Center
01:23AM 34.0967 -114.9786 71° East 492 566 34,900  Level Los Angeles Center
01:24AM 34.1408 -114.8236 71° East 491 565 35,000  Climbing Los Angeles Center
01:25AM 34.1847 -114.6667 71° East 491 565 35,000 -60 Level Los Angeles Center
01:26AM 34.2292 -114.5075 71° East 500 575 34,900 -60 Descending Los Angeles Center
01:27AM 34.2728 -114.3492 72° East 500 575 34,900  Level Los Angeles Center
01:27AM 34.3083 -114.2217 71° East 501 577 35,000  Climbing Albuquerque Center
01:29AM 34.3528 -114.0631 71° East 501 577 35,000  Level Albuquerque Center
01:30AM 34.3950 -113.9039 72° East 499 574 35,000  Level Albuquerque Center
01:31AM 34.4381 -113.7456 72° East 498 573 35,000  Level Albuquerque Center
01:32AM 34.4836 -113.5803 71° East 500 575 35,000  Level Albuquerque Center
01:33AM 34.5264 -113.4203 72° East 502 578 35,000  Level Albuquerque Center
01:34AM 34.5689 -113.2586 72° East 507 583 35,000  Level Albuquerque Center
01:35AM 34.6111 -113.0967 72° East 509 586 35,000  Level Albuquerque Center
01:36AM 34.6525 -112.9361 73° East 506 582 35,000  Level Albuquerque Center
01:37AM 34.6953 -112.7750 72° East 507 583 35,000  Level Albuquerque Center
01:38AM 34.7375 -112.6125 72° East 509 586 35,000  Level Albuquerque Center
01:39AM 34.7789 -112.4503 73° East 509 586 35,000  Level Albuquerque Center
01:40AM 34.8206 -112.2875 73° East 510 587 35,000  Level Albuquerque Center
01:41AM 34.8622 -112.1222 73° East 512 589 35,000  Level Albuquerque Center
01:42AM 34.9136 -111.9250 72° East 514 592 35,000  Level Albuquerque Center
01:43AM 34.9528 -111.7603 74° East 513 590 35,000  Level Albuquerque Center
01:44AM 34.9958 -111.5894 73° East 515 593 35,000  Level Albuquerque Center
01:45AM 35.0375 -111.4200 73° East 518 596 35,000  Level Albuquerque Center
01:46AM 35.0792 -111.2511 73° East 520 598 35,000  Level Albuquerque Center
01:47AM 35.1211 -111.0794 73° East 525 604 35,000  Level Albuquerque Center
01:48AM 35.1636 -110.9075 73° East 523 602 35,000  Level Albuquerque Center
01:49AM 35.2036 -110.7436 73° East 525 604 35,000  Level Albuquerque Center
01:50AM 35.2417 -110.5811 74° East 521 600 35,000  Level Albuquerque Center
01:51AM 35.2864 -110.3925 74° East 518 596 35,000  Level Albuquerque Center
01:52AM 35.3261 -110.2319 73° East 516 594 35,000  Level Albuquerque Center
01:53AM 35.3642 -110.0694 74° East 517 595 35,000  Level Albuquerque Center
01:54AM 35.4081 -109.8814 74° East 516 594 35,000  Level Albuquerque Center
01:55AM 35.4464 -109.7192 74° East 517 595 35,000  Level Albuquerque Center
01:56AM 35.4844 -109.5553 74° East 519 597 35,000  Level Albuquerque Center
01:57AM 35.5269 -109.3625 75° East 524 603 35,000  Level Albuquerque Center
01:58AM 35.5628 -109.2000 75° East 521 600 35,000  Level Albuquerque Center
01:59AM 35.6003 -109.0392 74° East 517 595 35,000  Level Albuquerque Center
02:00AM 35.6417 -108.8503 75° East 515 593 35,000  Level Albuquerque Center
02:01AM 35.6778 -108.6900 74° East 514 592 35,000  Level Albuquerque Center
02:02AM 35.7133 -108.5289 75° East 514 592 35,000  Level Albuquerque Center
02:03AM 35.7544 -108.3406 75° East 513 590 35,000  Level Albuquerque Center
02:04AM 35.7886 -108.1794 75° East 512 589 35,000  Level Albuquerque Center
02:05AM 35.8231 -108.0183 75° East 510 587 35,000  Level Albuquerque Center
02:06AM 35.8628 -107.8303 75° East 509 586 35,000  Level Albuquerque Center
02:07AM 35.8967 -107.6683 75° East 510 587 35,000  Level Albuquerque Center
02:08AM 35.9319 -107.5047 75° East 514 592 35,000  Level Albuquerque Center
02:09AM 35.9661 -107.3436 75° East 510 587 35,000  Level Albuquerque Center
02:10AM 36.0031 -107.1617 76° East 512 589 35,000  Level Albuquerque Center
02:11AM 36.0389 -106.9906 75° East 513 590 35,000  Level Albuquerque Center
02:12AM 36.0742 -106.8189 76° East 514 592 35,000  Level Albuquerque Center
02:13AM 36.1092 -106.6478 76° East 513 590 35,000  Level Albuquerque Center
02:14AM 36.1433 -106.4772 76° East 510 587 35,000  Level Albuquerque Center
02:15AM 36.1772 -106.3114 76° East 508 585 35,000  Level Albuquerque Center
02:16AM 36.2125 -106.1386 76° East 507 583 35,000  Level Albuquerque Center
02:17AM 36.2444 -105.9689 77° East 506 582 35,000 -60 Level Albuquerque Center
02:18AM 36.2769 -105.7975 77° East 509 586 34,900  Descending Albuquerque Center
02:19AM 36.3089 -105.6247 77° East 514 592 35,000  Climbing Albuquerque Center
02:20AM 36.3450 -105.4367 77° East 515 593 35,000  Level Albuquerque Center
02:21AM 36.3769 -105.2647 77° East 510 587 35,100  Climbing Albuquerque Center
02:22AM 36.4092 -105.0950 77° East 503 579 35,000 -120 Descending Albuquerque Center
02:23AM 36.4408 -104.9269 77° East 497 572 34,900 -60 Descending Albuquerque Center
02:24AM 36.4714 -104.7575 77° East 497 572 34,900  Level Albuquerque Center
02:25AM 36.5031 -104.5861 77° East 501 577 35,000 60 Climbing Albuquerque Center
02:26AM 36.5294 -104.4406 77° East 508 585 35,100  Climbing Albuquerque Center
02:27AM 36.5606 -104.2672 77° East 508 585 35,000 -60 Descending Albuquerque Center
02:28AM 36.5917 -104.0972 77° East 503 579 35,000  Level Albuquerque Center
02:29AM 36.6222 -103.9264 77° East 502 578 35,000  Level Albuquerque Center
02:30AM 36.6517 -103.7564 78° East 500 575 35,000  Level Albuquerque Center
02:31AM 36.6814 -103.5875 78° East 500 575 35,000  Level Albuquerque Center
02:32AM 36.7133 -103.4000 78° East 501 577 35,000  Level Albuquerque Center
02:33AM 36.7406 -103.2386 78° East 499 574 35,000  Level Albuquerque Center
02:34AM 36.7681 -103.0753 78° East 502 578 35,000  Level Albuquerque Center
02:35AM 36.8003 -102.8847 78° East 504 580 35,000  Level Albuquerque Center
02:36AM 36.8272 -102.7236 78° East 500 575 35,000  Level Albuquerque Center
02:37AM 36.8544 -102.5614 78° East 500 575 35,000  Level Albuquerque Center
02:38AM 36.8806 -102.3925 79° East 499 574 35,000  Level Albuquerque Center
02:39AM 36.9125 -102.2056 78° East 494 568 35,000  Level Albuquerque Center
02:40AM 36.9383 -102.0450 79° East 494 568 35,000  Level Albuquerque Center
02:41AM 36.9628 -101.8828 79° East 497 572 35,000  Level Albuquerque Center
02:42AM 36.9911 -101.6936 79° East 497 572 35,000  Level Albuquerque Center
02:43AM 37.0164 -101.5314 79° East 498 573 35,000  Level Albuquerque Center
02:44AM 37.0417 -101.3697 79° East 497 572 35,000  Level Kansas City Center
02:45AM 37.0653 -101.2092 80° East 495 570 35,000  Level Kansas City Center
02:46AM 37.0897 -101.0472 79° East 496 571 35,000  Level Kansas City Center
02:47AM 37.1189 -100.8597 79° East 495 570 35,000  Level Kansas City Center
02:48AM 37.1417 -100.6983 80° East 496 571 35,000  Level Kansas City Center
02:49AM 37.1650 -100.5372 80° East 495 570 35,000  Level Kansas City Center
02:50AM 37.1925 -100.3483 80° East 496 571 35,000  Level Kansas City Center
02:51AM 37.2150 -100.1861 80° East 496 571 35,000  Level Kansas City Center
02:52AM 37.2381 -100.0242 80° East 494 568 35,000  Level Kansas City Center
02:53AM 37.2639 -99.8367 80° East 492 566 35,000  Level Kansas City Center
02:54AM 37.2872 -99.6747 80° East 493 567 35,000  Level Kansas City Center
02:55AM 37.3086 -99.5119 81° East 494 568 35,000  Level Kansas City Center
02:56AM 37.3367 -99.3294 79° East 501 577 35,000  Level Kansas City Center
02:57AM 37.3600 -99.1589 80° East 497 572 35,000  Level Kansas City Center
02:58AM 37.3778 -98.9853 83° East 501 577 35,000  Level Kansas City Center
02:59AM 37.4006 -98.8119 81° East 504 580 35,000  Level Kansas City Center
03:00AM 37.4233 -98.6403 80° East 502 578 35,000  Level Kansas City Center
03:01AM 37.4453 -98.4694 81° East 498 573 35,000  Level Kansas City Center
03:02AM 37.4669 -98.3008 81° East 493 567 35,000  Level Kansas City Center
03:03AM 37.4878 -98.1339 81° East 489 563 35,000 -60 Level Kansas City Center
03:04AM 37.5081 -97.9661 81° East 489 563 34,900  Descending Kansas City Center
03:05AM 37.5289 -97.8000 81° East 487 560 35,000  Climbing Kansas City Center
03:06AM 37.5506 -97.6306 81° East 493 567 35,000  Level Kansas City Center
03:07AM 37.5700 -97.4617 82° East 492 566 35,000  Level Kansas City Center
03:08AM 37.5900 -97.2908 82° East 496 571 35,000  Level Kansas City Center
03:09AM 37.6094 -97.1211 82° East 493 567 35,000  Level Kansas City Center
03:10AM 37.6289 -96.9503 82° East 494 568 35,000  Level Kansas City Center
03:11AM 37.6483 -96.7803 82° East 491 565 35,000  Level Kansas City Center
03:12AM 37.6672 -96.6086 82° East 494 568 35,000  Level Kansas City Center
03:13AM 37.6867 -96.4383 82° East 491 565 35,000  Level Kansas City Center
03:14AM 37.7042 -96.2667 83° East 495 570 35,000  Level Kansas City Center
03:15AM 37.7250 -96.0781 82° East 495 570 35,000  Level Kansas City Center
03:16AM 37.7419 -95.9072 83° East 491 565 35,000  Level Kansas City Center
03:17AM 37.7603 -95.7339 82° East 494 568 35,000  Level Kansas City Center
03:18AM 37.7772 -95.5600 83° East 496 571 35,000  Level Kansas City Center
03:19AM 37.7947 -95.3872 83° East 495 570 35,000  Level Kansas City Center
03:20AM 37.8117 -95.2158 83° East 491 565 35,000  Level Kansas City Center
03:21AM 37.8283 -95.0503 83° East 492 566 35,000  Level Kansas City Center
03:22AM 37.8444 -94.8817 83° East 499 574 35,000  Level Kansas City Center
03:23AM 37.8625 -94.6856 83° East 503 579 35,000  Level Kansas City Center
03:24AM 37.8786 -94.5167 83° East 506 582 35,000  Level Kansas City Center
03:25AM 37.8939 -94.3414 84° East 507 583 35,000  Level Kansas City Center
03:26AM 37.9108 -94.1633 83° East 507 583 35,000  Level Kansas City Center
03:27AM 37.9258 -93.9847 84° East 508 585 35,000  Level Kansas City Center
03:28AM 37.9419 -93.8078 83° East 506 582 35,000  Level Kansas City Center
03:29AM 37.9564 -93.6292 84° East 507 583 35,000  Level Kansas City Center
03:30AM 37.9714 -93.4522 84° East 505 581 35,000  Level Kansas City Center
03:31AM 37.9853 -93.2747 84° East 505 581 35,000  Level Kansas City Center
03:32AM 37.9997 -93.0981 84° East 503 579 35,000  Level Kansas City Center
03:33AM 38.0136 -92.9183 84° East 507 583 35,000  Level Kansas City Center
03:34AM 38.0275 -92.7367 84° East 504 580 35,000  Level Kansas City Center
03:35AM 38.0408 -92.5589 85° East 506 582 35,000  Level Kansas City Center
03:36AM 38.0542 -92.3792 85° East 499 574 35,000  Level Kansas City Center
03:37AM 38.0689 -92.2042 84° East 515 593 35,000  Level Kansas City Center
03:38AM 38.0817 -92.0106 85° East 513 590 35,000  Level Kansas City Center
03:39AM 38.0939 -91.8272 85° East 516 594 35,000  Level Kansas City Center
03:40AM 38.1075 -91.6464 84° East 515 593 35,000  Level Kansas City Center
03:41AM 38.1194 -91.4636 85° East 516 594 35,000  Level Kansas City Center
03:42AM 38.1322 -91.2817 85° East 515 593 35,000  Level Kansas City Center
03:43AM 38.1431 -91.0983 86° East 518 596 35,000  Level Kansas City Center
03:44AM 38.1511 -90.9364 86° East 526 605 35,000  Level Kansas City Center
03:45AM 38.1614 -90.7558 86° East 520 598 35,000  Level Kansas City Center
03:46AM 38.1719 -90.5753 86° East 517 595 35,000  Level Kansas City Center
03:47AM 38.1842 -90.3694 86° East 519 597 35,000  Level Kansas City Center
03:48AM 38.1947 -90.1872 86° East 520 598 35,000  Level Kansas City Center
03:49AM 38.2047 -90.0058 86° East 518 596 35,000  Level Kansas City Center
03:50AM 38.2156 -89.8089 86° East 522 601 35,000  Level Kansas City Center
03:51AM 38.2239 -89.6261 87° East 521 600 35,000  Level Kansas City Center
03:52AM 38.2333 -89.4425 86° East 522 601 35,000  Level Kansas City Center
03:53AM 38.2408 -89.2578 87° East 525 604 35,000  Level Kansas City Center
03:54AM 38.2497 -89.0719 86° East 528 608 35,000  Level Kansas City Center
03:55AM 38.2575 -88.8889 87° East 529 609 35,000  Level Kansas City Center
03:56AM 38.2667 -88.7006 86° East 533 613 35,000  Level Kansas City Center
03:57AM 38.2731 -88.5139 87° East 526 605 35,000  Level Kansas City Center
03:58AM 38.2778 -88.3239 88° East 534 615 35,000  Level Kansas City Center
03:59AM 38.2858 -88.1364 87° East 531 611 35,000  Level Kansas City Center
04:00AM 38.2933 -87.9492 87° East 529 609 35,000  Level Kansas City Center
04:01AM 38.3014 -87.7639 87° East 527 606 35,000  Level Indianapolis Center
04:02AM 38.3078 -87.5786 87° East 521 600 35,000  Level Indianapolis Center
04:03AM 38.3136 -87.3931 88° East 524 603 35,000  Level Indianapolis Center
04:04AM 38.3192 -87.1953 88° East 519 597 35,000 -60 Level Indianapolis Center
04:05AM 38.3244 -87.0081 88° East 522 601 34,900  Descending Indianapolis Center
04:06AM 38.3283 -86.8550 88° East 524 603 35,000  Climbing Indianapolis Center
04:07AM 38.3331 -86.6681 88° East 527 606 35,000  Level Indianapolis Center
04:08AM 38.3375 -86.4803 88° East 528 608 35,000 -60 Level Indianapolis Center
04:09AM 38.3411 -86.2950 89° East 524 603 34,900  Descending Indianapolis Center
04:10AM 38.3458 -86.1086 88° East 524 603 35,000  Climbing Indianapolis Center
04:11AM 38.3494 -85.9217 89° East 527 606 35,000  Level Indianapolis Center
04:12AM 38.3519 -85.7344 89° East 527 606 35,000  Level Indianapolis Center
04:13AM 38.3553 -85.5472 89° East 527 606 35,000  Level Indianapolis Center
04:14AM 38.3575 -85.3592 89° East 530 610 35,000  Level Indianapolis Center
04:15AM 38.3606 -85.1431 89° East 526 605 35,000 -60 Level Indianapolis Center
04:16AM 38.3628 -84.9553 89° East 527 606 34,900  Descending Indianapolis Center
04:17AM 38.3647 -84.7667 89° East 533 613 35,000  Climbing Indianapolis Center
04:18AM 38.3658 -84.6083 89° East 533 613 35,000  Level Indianapolis Center
04:19AM 38.3672 -84.4211 89° East 530 610 35,000  Level Indianapolis Center
04:20AM 38.3672 -84.2336 90° East 529 609 35,000  Level Indianapolis Center
04:21AM 38.3683 -84.0458 90° East 527 606 35,000  Level Indianapolis Center
04:22AM 38.3678 -83.8586 90° East 527 606 35,000  Level Indianapolis Center
04:23AM 38.3678 -83.6711 90° East 525 604 35,000  Level Indianapolis Center
04:24AM 38.3672 -83.4792 90° East 535 616 35,000  Level Indianapolis Center
04:25AM 38.3672 -83.2900 90° East 532 612 35,000  Level Indianapolis Center
04:26AM 38.3658 -83.1000 90° East 533 613 35,000  Level Indianapolis Center
04:27AM 38.3639 -82.9086 91° East 537 618 35,000  Level Indianapolis Center
04:28AM 38.3619 -82.7192 91° East 534 615 35,000  Level Indianapolis Center
04:29AM 38.3606 -82.5294 90° East 534 615 35,000  Level Indianapolis Center
04:30AM 38.3583 -82.3403 91° East 533 613 35,000  Level Indianapolis Center
04:31AM 38.3558 -82.1547 91° East 528 608 35,000  Level Indianapolis Center
04:32AM 38.3783 -81.9644 81° East 552 635 35,000  Level Indianapolis Center
04:33AM 38.4106 -81.7794 77° East 545 627 35,000  Level Indianapolis Center
04:34AM 38.4392 -81.5919 79° East 546 628 35,000  Level Indianapolis Center
04:35AM 38.4675 -81.4058 79° East 545 627 35,000  Level Indianapolis Center
04:36AM 38.4964 -81.2181 79° East 547 629 35,000  Level Indianapolis Center
04:37AM 38.5228 -81.0278 80° East 549 632 35,000  Level Indianapolis Center
04:39AM 38.5483 -80.8392 80° East 542 624 35,000  Level Indianapolis Center
04:40AM 38.5733 -80.6497 80° East 543 625 35,000  Level Indianapolis Center
04:41AM 38.6006 -80.4361 81° East 544 626 35,000 -420 Level Indianapolis Center
04:42AM 38.6236 -80.2686 80° East 546 628 34,200 -2,460 Descending Indianapolis Center
04:43AM 38.6478 -80.0714 81° East 559 643 30,100 -3,300 Descending Indianapolis Center
04:44AM 38.6772 -79.8572 80° East 555 639 27,500 -2,580 Descending Washington Center
04:45AM 38.7031 -79.6486 81° East 555 639 24,900 -2,460 Descending Washington Center
04:46AM 38.7258 -79.4661 81° East 540 621 22,600 -2,400 Descending Washington Center
04:47AM 38.7481 -79.2944 81° East 519 597 20,200 -2,460 Descending Washington Center
04:48AM 38.7658 -79.1222 82° East 505 581 17,700 -2,460 Descending Washington Center
04:49AM 38.7872 -78.9581 80° East 485 558 15,300 -2,280 Descending Washington Center
04:50AM 38.8017 -78.8017 83° East 455 524 13,200 -1,680 Descending Washington Center
04:51AM 38.8175 -78.6744 81° East 437 503 12,000 -1,140 Descending Washington Center
04:52AM 38.8339 -78.5231 82° East 399 459 11,000 -540 Descending Washington Center
04:53AM 38.8469 -78.4092 82° East 377 434 11,000 -180 Level Washington Center
04:54AM 38.8603 -78.2842 82° East 358 412 10,700 -900 Descending Washington Center
04:55AM 38.8736 -78.1594 82° East 352 405 9,200 -1,440 Descending Washington Center
04:56AM 38.8864 -78.0372 82° East 352 405 7,900 -1,620 Descending Washington Center
04:57AM 38.8533 -77.9242 111° Southeast 324 373 6,000 -1,440 Descending Washington Center
04:58AM 38.8175 -77.8378 118° Southeast 295 339 5,100 -540 Descending Washington Center
04:59AM 38.7856 -77.7542 116° Southeast 273 314 5,000 -60 Descending Washington Center
05:00AM 38.7514 -77.6786 120° Southeast 256 295 5,000 -480 Level Washington Center
05:01AM 38.7500 -77.5833 91° East 237 273 4,100 -1,020 Descending Potomac TRACON
05:01AM 38.7667 -77.5167 72° East 224 258 3,100 -660 Descending Potomac TRACON
05:02AM 38.8000 -77.4833 38° Northeast 171 197 2,900 -420 Descending Potomac TRACON
05:03AM 38.8333 -77.4667 21° North 139 160 2,300 -600 Descending Potomac TRACON
05:04AM 38.8667 -77.4667 360° North 128 147 1,700 -720 Descending Potomac TRACON
05:05AM 38.9167 -77.4667 360° North 130 150 900 -840 Descending Potomac TRACON
05:07AM 38.9333 -77.4500 32° Northeast  Level FlightAware Approximate
05:14AM 38.9474 -77.4599 32° Northeast  Level Estimated
05:15AM 38.9474 -77.4599 32° Northeast  Level Estimated